Time;durP1;ratioP1;P1;durP2;ratioP2;P2;SDS_P1;SDS_P2;PMS_P1;PMS_P2;Temp;Humidity;BMP_temperature;BMP_pressure;BME280_temperature;BME280_humidity;BME280_pressure;Samples;Min_cycle;Max_cycle;Signal;HPM_P1;HPM_P2
2022/12/05 00:00:56;;;;;;;28.05;16.08;;;4.70;99.90;;;;;;5051804;28;20132;-66
2022/12/05 00:03:21;;;;;;;26.48;15.35;;;4.70;99.90;;;;;;5052423;28;20437;-66
2022/12/05 00:05:47;;;;;;;34.35;16.27;;;4.70;99.90;;;;;;5052444;28;20036;-66
2022/12/05 00:08:13;;;;;;;34.08;16.13;;;4.70;99.90;;;;;;5052303;28;20090;-66
2022/12/05 00:10:39;;;;;;;32.35;17.05;;;4.70;99.90;;;;;;5052457;28;20404;-66
2022/12/05 00:13:05;;;;;;;33.80;17.70;;;4.70;99.90;;;;;;5051936;28;20029;-66
2022/12/05 00:15:34;;;;;;;32.13;18.05;;;4.70;99.90;;;;;;5052380;28;20473;-65
2022/12/05 00:18:00;;;;;;;35.20;18.52;;;4.70;99.90;;;;;;5050373;28;20037;-66
2022/12/05 00:20:25;;;;;;;35.10;18.58;;;4.70;99.90;;;;;;5052256;28;20108;-65
2022/12/05 00:22:51;;;;;;;32.05;18.58;;;4.70;99.90;;;;;;5052586;28;20028;-65
2022/12/05 00:25:17;;;;;;;36.90;19.15;;;4.70;99.90;;;;;;5050384;28;20041;-65
2022/12/05 00:27:42;;;;;;;36.33;19.92;;;4.70;99.90;;;;;;5051868;28;20058;-66
2022/12/05 00:30:08;;;;;;;35.20;18.65;;;4.70;99.90;;;;;;5051382;28;20027;-65
2022/12/05 00:32:34;;;;;;;37.53;19.58;;;4.60;99.90;;;;;;5052136;28;20382;-66
2022/12/05 00:35:00;;;;;;;38.40;19.63;;;4.60;99.90;;;;;;5052153;28;20033;-66
2022/12/05 00:37:25;;;;;;;44.35;20.55;;;4.60;99.90;;;;;;5052417;28;20244;-66
2022/12/05 00:39:51;;;;;;;37.75;19.30;;;4.60;99.90;;;;;;5052204;28;20029;-66
2022/12/05 00:42:17;;;;;;;41.13;19.75;;;4.60;99.90;;;;;;5051700;28;20068;-66
2022/12/05 00:44:42;;;;;;;37.88;20.33;;;4.60;99.90;;;;;;5051561;28;20029;-66
2022/12/05 00:47:08;;;;;;;38.08;19.05;;;4.60;99.90;;;;;;5051466;28;20468;-65
2022/12/05 00:49:33;;;;;;;39.22;19.73;;;4.60;99.90;;;;;;5051967;28;20395;-65
2022/12/05 00:51:59;;;;;;;41.50;21.02;;;4.60;99.90;;;;;;5051489;28;20029;-65
2022/12/05 00:54:25;;;;;;;41.55;21.48;;;4.60;99.90;;;;;;5051847;28;20036;-65
2022/12/05 00:56:55;;;;;;;35.55;19.33;;;4.60;99.90;;;;;;5051919;28;20393;-65
2022/12/05 00:59:21;;;;;;;36.75;19.33;;;4.60;99.90;;;;;;5051556;28;20028;-65
2022/12/05 01:01:49;;;;;;;34.80;18.38;;;4.60;99.90;;;;;;5051956;28;20060;-66
2022/12/05 01:04:23;;;;;;;37.35;19.42;;;4.60;99.90;;;;;;5051306;28;20029;-66
2022/12/05 01:06:52;;;;;;;35.92;19.05;;;4.60;99.90;;;;;;5051910;28;20033;-66
2022/12/05 01:09:19;;;;;;;34.42;18.38;;;4.60;99.90;;;;;;5054778;28;20202;-66
2022/12/05 01:11:46;;;;;;;32.13;17.55;;;4.60;99.90;;;;;;5055364;28;20029;-66
2022/12/05 01:14:13;;;;;;;29.08;16.42;;;4.60;99.90;;;;;;5055057;28;20028;-66
2022/12/05 01:16:41;;;;;;;31.92;17.33;;;4.60;99.90;;;;;;5055533;28;20132;-66
2022/12/05 01:19:22;;;;;;;34.60;16.23;;;4.60;99.90;;;;;;5054884;28;20467;-66
2022/12/05 01:21:48;;;;;;;27.98;15.85;;;4.60;99.90;;;;;;5054262;28;20044;-66
2022/12/05 01:24:15;;;;;;;28.00;15.90;;;4.70;99.90;;;;;;5054851;28;20025;-67
2022/12/05 01:26:41;;;;;;;27.33;15.13;;;4.60;99.90;;;;;;5055138;28;20466;-66
2022/12/05 01:29:08;;;;;;;30.02;16.08;;;4.70;99.90;;;;;;5054632;28;20081;-67
2022/12/05 01:31:35;;;;;;;25.98;14.93;;;4.70;99.90;;;;;;5055294;28;20108;-66
2022/12/05 01:34:04;;;;;;;24.30;14.93;;;4.70;99.90;;;;;;5054703;28;20021;-70
2022/12/05 01:36:30;;;;;;;27.27;15.63;;;4.70;99.90;;;;;;5054586;28;20055;-66
2022/12/05 01:38:56;;;;;;;27.20;15.00;;;4.70;99.90;;;;;;5055297;28;20029;-66
2022/12/05 01:41:31;;;;;;;22.98;14.63;;;4.70;99.90;;;;;;5054768;28;20025;-66
2022/12/05 01:44:11;;;;;;;27.70;14.75;;;4.70;99.90;;;;;;5055202;28;20171;-66
2022/12/05 01:46:44;;;;;;;26.43;14.80;;;4.70;99.90;;;;;;5053210;28;20043;-66
2022/12/05 01:49:30;;;;;;;26.50;15.90;;;4.70;99.90;;;;;;5054193;28;20037;-66
2022/12/05 01:52:01;;;;;;;30.55;15.63;;;4.70;99.90;;;;;;5054988;28;20025;-66
2022/12/05 01:54:27;;;;;;;27.92;15.57;;;4.60;99.90;;;;;;5053525;28;20060;-66
2022/12/05 01:56:59;;;;;;;27.13;15.23;;;4.70;99.90;;;;;;5054721;28;20032;-66
2022/12/05 01:59:28;;;;;;;29.90;16.27;;;4.70;99.90;;;;;;5054496;28;20100;-66
2022/12/05 02:01:54;;;;;;;30.30;15.93;;;4.70;99.90;;;;;;5054682;28;20028;-66
2022/12/05 02:04:19;;;;;;;27.67;15.63;;;4.70;99.90;;;;;;5053720;28;20025;-65
2022/12/05 02:06:45;;;;;;;26.63;16.17;;;4.70;99.90;;;;;;5054416;28;20036;-66
2022/12/05 02:09:12;;;;;;;27.40;16.15;;;4.70;99.90;;;;;;5054174;28;20025;-66
2022/12/05 02:11:51;;;;;;;29.55;16.92;;;4.70;99.90;;;;;;5054494;28;20063;-66
2022/12/05 02:14:19;;;;;;;30.23;17.63;;;4.70;99.90;;;;;;5054102;28;20108;-66
2022/12/05 02:17:03;;;;;;;29.63;16.67;;;4.70;99.90;;;;;;5054237;28;20032;-66
2022/12/05 02:19:53;;;;;;;31.00;16.73;;;4.70;99.90;;;;;;5054608;28;20028;-66
2022/12/05 02:22:53;;;;;;;30.45;17.90;;;4.70;99.90;;;;;;5053902;28;20052;-66
2022/12/05 02:25:57;;;;;;;28.40;16.50;;;4.70;99.90;;;;;;5053863;28;20033;-66
2022/12/05 02:28:28;;;;;;;26.98;16.40;;;4.70;99.90;;;;;;5053721;28;20075;-66
2022/12/05 02:30:58;;;;;;;;;;;4.70;99.90;;;;;;5054377;28;20118;-67
2022/12/05 02:33:36;;;;;;;24.55;15.43;;;4.60;99.90;;;;;;5053840;28;19909;-66
2022/12/05 02:36:01;;;;;;;26.88;16.25;;;4.60;99.90;;;;;;5052393;28;20516;-66
2022/12/05 02:38:43;;;;;;;27.23;16.05;;;4.60;99.90;;;;;;5053370;28;20180;-66
2022/12/05 02:41:29;;;;;;;27.80;16.45;;;4.60;99.90;;;;;;5053673;28;20477;-66
2022/12/05 02:44:06;;;;;;;28.42;16.95;;;4.60;99.90;;;;;;5053528;28;20122;-66
2022/12/05 02:46:35;;;;;;;25.63;15.63;;;4.50;99.90;;;;;;5053778;28;20425;-66
2022/12/05 02:49:15;;;;;;;27.15;15.30;;;4.50;99.90;;;;;;5053632;28;20111;-66
2022/12/05 02:51:44;;;;;;;25.15;14.73;;;4.50;99.90;;;;;;5053916;28;20025;-66
2022/12/05 02:54:17;;;;;;;24.45;15.27;;;4.40;99.90;;;;;;5053288;28;20353;-66
2022/12/05 02:56:45;;;;;;;24.38;15.05;;;4.50;99.90;;;;;;5053753;28;20033;-66
2022/12/05 02:59:10;;;;;;;25.42;15.02;;;4.40;99.90;;;;;;5051758;28;20032;-66
2022/12/05 03:01:36;;;;;;;25.17;14.68;;;4.40;99.90;;;;;;5053710;28;20037;-66
2022/12/05 03:04:04;;;;;;;22.98;14.50;;;4.40;99.90;;;;;;5053582;28;20032;-66
2022/12/05 03:06:38;;;;;;;23.33;14.80;;;4.40;99.90;;;;;;5052978;28;20024;-65
2022/12/05 03:09:37;;;;;;;21.27;14.27;;;4.40;99.90;;;;;;5053326;28;20036;-66
2022/12/05 03:12:15;;;;;;;23.30;15.00;;;4.40;99.90;;;;;;5053560;28;20048;-65
2022/12/05 03:14:47;;;;;;;25.00;14.05;;;4.40;99.90;;;;;;5053567;28;20033;-65
2022/12/05 03:17:17;;;;;;;;;;;4.40;99.90;;;;;;5053088;28;20364;-65
2022/12/05 03:20:03;;;;;;;24.20;14.18;;;4.40;99.90;;;;;;5052915;28;20275;-65
2022/12/05 03:22:47;;;;;;;25.88;15.32;;;4.30;99.90;;;;;;5052727;28;20029;-65
2022/12/05 03:25:13;;;;;;;26.23;15.77;;;4.30;99.90;;;;;;5051521;28;20047;-65
2022/12/05 03:27:57;;;;;;;25.40;14.98;;;4.30;99.90;;;;;;5053015;28;20025;-66
2022/12/05 03:30:23;;;;;;;29.55;16.17;;;4.30;99.90;;;;;;5051901;28;20029;-66
2022/12/05 03:33:11;;;;;;;23.73;15.48;;;4.30;99.90;;;;;;5052907;28;20123;-67
2022/12/05 03:35:43;;;;;;;27.85;15.73;;;4.30;99.90;;;;;;5053002;28;20385;-67
2022/12/05 03:38:23;;;;;;;25.55;15.20;;;4.30;99.90;;;;;;5052787;28;20029;-69
2022/12/05 03:41:24;;;;;;;24.23;16.15;;;4.30;99.90;;;;;;5051402;28;20037;-66
2022/12/05 03:43:59;;;;;;;24.30;14.68;;;4.30;99.90;;;;;;5053236;28;20033;-66
2022/12/05 03:46:42;;;;;;;23.23;13.73;;;4.30;99.90;;;;;;5052183;28;20071;-64
2022/12/05 03:49:08;;;;;;;24.20;14.45;;;4.30;99.90;;;;;;5052771;28;20029;-66
2022/12/05 03:51:40;;;;;;;25.23;14.50;;;4.30;99.90;;;;;;5052156;28;20107;-66
2022/12/05 03:54:19;;;;;;;21.75;13.65;;;4.30;99.90;;;;;;5052850;28;20470;-66
2022/12/05 03:56:50;;;;;;;23.27;13.93;;;4.30;99.90;;;;;;5052971;28;20103;-66
2022/12/05 03:59:44;;;;;;;26.42;15.63;;;4.30;99.90;;;;;;5052134;28;20492;-67
2022/12/05 04:02:27;;;;;;;24.60;14.30;;;4.30;99.90;;;;;;5052614;28;20111;-72
2022/12/05 04:05:08;;;;;;;23.25;14.68;;;4.30;99.90;;;;;;5052577;28;20033;-66
2022/12/05 04:07:36;;;;;;;;;;;4.20;99.90;;;;;;5052581;28;20029;-66
2022/12/05 04:10:11;;;;;;;26.00;13.82;;;4.20;99.90;;;;;;5052546;28;20321;-67
2022/12/05 04:12:40;;;;;;;21.77;13.80;;;4.20;99.90;;;;;;5052416;28;20029;-66
2022/12/05 04:15:15;;;;;;;25.92;14.70;;;4.20;99.90;;;;;;5052728;28;20044;-67
2022/12/05 04:17:48;;;;;;;24.55;14.68;;;4.20;99.90;;;;;;5052229;28;20021;-67
2022/12/05 04:23:03;;;;;;;23.10;13.90;;;4.30;99.90;;;;;;5052815;28;20039;-67
2022/12/05 04:25:37;;;;;;;23.23;14.32;;;4.20;99.90;;;;;;5051575;28;20033;-65
2022/12/05 04:28:20;;;;;;;26.13;15.10;;;4.20;99.90;;;;;;5051960;28;20049;-66
2022/12/05 04:31:29;;;;;;;23.55;14.07;;;4.30;99.90;;;;;;5052229;28;20025;-67
2022/12/05 04:33:59;;;;;;;24.20;13.30;;;4.30;99.90;;;;;;5047250;28;20098;-66
2022/12/05 04:36:25;;;;;;;22.95;13.15;;;4.30;99.90;;;;;;5052008;28;20049;-66
2022/12/05 04:39:00;;;;;;;22.55;13.98;;;4.30;99.90;;;;;;5051963;28;20373;-67
2022/12/05 04:41:35;;;;;;;21.55;13.57;;;4.30;99.90;;;;;;5052141;28;20138;-67
2022/12/05 04:44:07;;;;;;;21.17;13.52;;;4.30;99.90;;;;;;5055418;28;20021;-66
2022/12/05 04:46:34;;;;;;;29.92;15.25;;;4.30;99.90;;;;;;5055431;28;20064;-66
2022/12/05 04:49:04;;;;;;;24.38;13.90;;;4.30;99.90;;;;;;5056564;28;20503;-66
2022/12/05 04:51:33;;;;;;;25.77;13.93;;;4.30;99.90;;;;;;5055799;28;20031;-66
2022/12/05 04:54:19;;;;;;;20.67;13.32;;;4.30;99.90;;;;;;5056261;28;20120;-66
2022/12/05 04:56:47;;;;;;;26.20;13.73;;;4.30;99.90;;;;;;5055975;28;20032;-65
2022/12/05 04:59:13;;;;;;;25.00;14.38;;;4.30;99.90;;;;;;5054312;28;20428;-65
2022/12/05 05:01:47;;;;;;;23.98;13.52;;;4.30;99.90;;;;;;5055629;28;20025;-66
2022/12/05 05:04:32;;;;;;;22.13;13.82;;;4.30;99.90;;;;;;5056101;28;20025;-66
2022/12/05 05:06:58;;;;;;;20.08;13.85;;;4.30;99.90;;;;;;5055809;28;20036;-66
2022/12/05 05:09:24;;;;;;;20.50;12.75;;;4.30;99.90;;;;;;5055111;28;20374;-65
2022/12/05 05:11:49;;;;;;;21.83;13.88;;;4.30;99.90;;;;;;5055217;28;20025;-66
2022/12/05 05:14:15;;;;;;;22.70;13.38;;;4.30;99.90;;;;;;5055634;28;20025;-68
2022/12/05 05:16:41;;;;;;;22.30;14.00;;;4.30;99.90;;;;;;5055456;28;20394;-66
2022/12/05 05:19:09;;;;;;;22.70;13.48;;;4.30;99.90;;;;;;5055624;28;20108;-66
2022/12/05 05:21:37;;;;;;;21.80;13.70;;;4.30;99.90;;;;;;5055135;28;20108;-66
2022/12/05 05:24:04;;;;;;;24.52;14.32;;;4.30;99.90;;;;;;5055445;28;20075;-66
2022/12/05 05:26:34;;;;;;;21.25;14.25;;;4.20;99.90;;;;;;5054894;28;20121;-66
2022/12/05 05:29:00;;;;;;;22.75;14.77;;;4.30;99.90;;;;;;5055224;28;20044;-66
2022/12/05 05:31:26;;;;;;;25.42;14.63;;;4.30;99.90;;;;;;5055035;28;20473;-64
2022/12/05 05:33:54;;;;;;;21.33;13.45;;;4.30;99.90;;;;;;5055428;28;20028;-67
2022/12/05 05:36:22;;;;;;;25.23;14.93;;;4.30;99.90;;;;;;5053885;28;20041;-67
2022/12/05 05:38:51;;;;;;;23.33;14.40;;;4.30;99.90;;;;;;5051080;28;20025;-67
2022/12/05 05:41:19;;;;;;;24.83;14.45;;;4.30;99.90;;;;;;5053694;28;20035;-71
2022/12/05 05:43:45;;;;;;;20.67;13.27;;;4.30;99.90;;;;;;5054056;28;20126;-67
2022/12/05 05:46:11;;;;;;;22.10;14.68;;;4.30;99.90;;;;;;5053724;28;20108;-67
2022/12/05 05:48:37;;;;;;;26.17;14.82;;;4.30;99.90;;;;;;5053465;28;20211;-67
2022/12/05 05:51:04;;;;;;;22.67;13.75;;;4.30;99.90;;;;;;5053670;28;20100;-67
2022/12/05 05:53:30;;;;;;;24.02;14.52;;;4.30;99.90;;;;;;5053130;28;20171;-67
2022/12/05 05:55:56;;;;;;;23.35;14.65;;;4.30;99.90;;;;;;5053789;28;20033;-65
2022/12/05 05:58:22;;;;;;;22.70;14.35;;;4.30;99.90;;;;;;5053006;28;20154;-66
2022/12/05 06:00:47;;;;;;;25.73;13.82;;;4.30;99.90;;;;;;5053730;28;20107;-65
2022/12/05 06:03:13;;;;;;;21.33;14.02;;;4.30;99.90;;;;;;5053590;28;20029;-65
2022/12/05 06:05:39;;;;;;;22.95;13.85;;;4.30;99.90;;;;;;5053275;28;20029;-66
2022/12/05 06:08:04;;;;;;;23.55;14.70;;;4.30;99.90;;;;;;5052250;28;20048;-66
2022/12/05 06:10:31;;;;;;;23.83;13.85;;;4.30;99.90;;;;;;5052828;28;20166;-67
2022/12/05 06:12:57;;;;;;;24.98;12.90;;;4.30;99.90;;;;;;5053527;28;20040;-67
2022/12/05 06:15:23;;;;;;;21.38;13.15;;;4.30;99.90;;;;;;5052800;28;20035;-67
2022/12/05 06:17:49;;;;;;;23.27;13.70;;;4.30;99.90;;;;;;5053523;28;20035;-67
2022/12/05 06:20:14;;;;;;;20.10;13.60;;;4.30;99.90;;;;;;5053127;28;20159;-66
2022/12/05 06:22:40;;;;;;;23.50;14.30;;;4.30;99.90;;;;;;5052733;28;20035;-66
2022/12/05 06:25:07;;;;;;;24.98;14.63;;;4.30;99.90;;;;;;5052824;28;20037;-66
2022/12/05 06:27:33;;;;;;;23.95;14.70;;;4.30;99.90;;;;;;5052597;28;20033;-65
2022/12/05 06:29:59;;;;;;;24.80;14.52;;;4.30;99.90;;;;;;5053394;28;20032;-66
2022/12/05 06:32:27;;;;;;;26.40;14.63;;;4.30;99.90;;;;;;5053116;28;20028;-65
2022/12/05 06:34:53;;;;;;;30.20;15.57;;;4.30;99.90;;;;;;5051853;28;20032;-65
2022/12/05 06:37:18;;;;;;;28.35;16.02;;;4.40;99.90;;;;;;5014533;28;1111015;-66
2022/12/05 06:39:44;;;;;;;30.42;16.08;;;4.40;99.90;;;;;;5053646;28;20029;-67
2022/12/05 06:42:10;;;;;;;26.50;15.38;;;4.40;99.90;;;;;;5053933;28;20029;-65
2022/12/05 06:44:35;;;;;;;26.75;15.30;;;4.40;99.90;;;;;;5053612;28;20107;-68
2022/12/05 06:47:01;;;;;;;28.73;16.10;;;4.40;99.90;;;;;;5053889;28;20311;-66
2022/12/05 06:49:31;;;;;;;30.13;16.17;;;4.40;99.90;;;;;;5053559;28;20036;-66
2022/12/05 06:51:58;;;;;;;29.15;16.00;;;4.40;99.90;;;;;;5054013;28;20470;-66
2022/12/05 06:54:23;;;;;;;26.85;14.82;;;4.40;99.90;;;;;;5053269;28;20496;-66
2022/12/05 06:56:49;;;;;;;27.17;15.65;;;4.40;99.90;;;;;;5053822;28;20028;-66
2022/12/05 06:59:15;;;;;;;29.02;15.82;;;4.40;99.90;;;;;;5053752;28;20445;-65
2022/12/05 07:01:41;;;;;;;28.33;14.95;;;4.40;99.90;;;;;;5053559;28;20021;-66
2022/12/05 07:04:06;;;;;;;28.13;15.85;;;4.40;99.90;;;;;;5053593;28;20024;-67
2022/12/05 07:06:33;;;;;;;28.17;15.30;;;4.40;99.90;;;;;;5051896;28;20489;-67
2022/12/05 07:08:59;;;;;;;28.77;15.77;;;4.40;99.90;;;;;;5053099;28;20521;-67
2022/12/05 07:11:25;;;;;;;34.17;16.98;;;4.40;99.90;;;;;;5053133;28;20100;-66
2022/12/05 07:13:51;;;;;;;28.88;16.83;;;4.40;99.90;;;;;;5053351;28;20048;-66
2022/12/05 07:16:17;;;;;;;29.05;16.58;;;4.40;99.90;;;;;;5053536;28;20082;-65
2022/12/05 07:18:42;;;;;;;27.17;15.88;;;4.40;99.90;;;;;;5052719;28;20488;-66
2022/12/05 07:21:11;;;;;;;33.35;15.80;;;4.40;99.90;;;;;;5052492;28;20478;-66
2022/12/05 07:23:37;;;;;;;32.72;16.42;;;4.40;99.90;;;;;;5052726;28;20028;-66
2022/12/05 07:26:11;;;;;;;28.25;16.17;;;4.40;99.90;;;;;;5052801;28;20538;-66
2022/12/05 07:28:37;;;;;;;29.15;16.20;;;4.40;99.90;;;;;;5052756;28;20043;-67
2022/12/05 07:31:09;;;;;;;31.80;17.00;;;4.50;99.90;;;;;;5052788;28;20517;-66
2022/12/05 07:33:35;;;;;;;30.75;17.58;;;4.50;99.90;;;;;;5052823;28;20443;-65
2022/12/05 07:36:03;;;;;;;31.15;17.02;;;4.50;99.90;;;;;;5050439;28;20041;-66
2022/12/05 07:38:29;;;;;;;31.35;16.70;;;4.50;99.90;;;;;;5052910;28;20037;-66
2022/12/05 07:40:55;;;;;;;31.17;17.35;;;4.50;99.90;;;;;;5052995;28;20025;-66
2022/12/05 07:43:21;;;;;;;35.78;17.55;;;4.50;99.90;;;;;;5052909;28;20351;-66
2022/12/05 07:45:46;;;;;;;34.95;17.25;;;4.50;99.90;;;;;;5052201;28;20044;-65
2022/12/05 07:48:12;;;;;;;32.65;17.70;;;4.60;99.90;;;;;;5053003;28;20038;-66
2022/12/05 07:50:37;;;;;;;37.55;18.27;;;4.50;99.90;;;;;;5052035;28;20025;-66
2022/12/05 07:53:03;;;;;;;30.20;15.88;;;4.60;99.90;;;;;;5052711;28;20037;-66
2022/12/05 07:55:29;;;;;;;35.05;16.73;;;4.60;99.90;;;;;;5052037;28;20028;-67
2022/12/05 07:57:54;;;;;;;33.80;17.77;;;4.60;99.90;;;;;;5052341;28;20377;-65
2022/12/05 08:00:21;;;;;;;35.22;17.83;;;4.70;99.90;;;;;;5052200;28;20021;-65
2022/12/05 08:02:47;;;;;;;33.47;17.65;;;4.70;99.90;;;;;;5051901;28;20361;-67
2022/12/05 08:05:14;;;;;;;39.05;17.63;;;4.70;99.90;;;;;;5052110;28;20083;-66
2022/12/05 08:07:40;;;;;;;36.65;17.63;;;4.70;99.90;;;;;;5052225;28;20537;-66
2022/12/05 08:10:06;;;;;;;38.25;19.38;;;4.70;99.90;;;;;;5052653;28;20029;-66
2022/12/05 08:12:32;;;;;;;39.17;18.67;;;4.70;99.90;;;;;;5052094;28;20068;-66
2022/12/05 08:14:57;;;;;;;34.70;18.25;;;4.70;99.90;;;;;;5051989;28;20080;-66
2022/12/05 08:17:23;;;;;;;38.20;18.33;;;4.80;99.90;;;;;;5052360;28;20029;-67
2022/12/05 08:19:49;;;;;;;46.80;18.73;;;4.80;99.90;;;;;;5051749;28;20017;-65
2022/12/05 08:22:14;;;;;;;44.90;19.00;;;4.70;99.90;;;;;;5050852;28;20101;-66
2022/12/05 08:24:40;;;;;;;37.70;19.33;;;4.70;99.90;;;;;;5051915;28;20419;-66
2022/12/05 08:27:06;;;;;;;36.92;19.92;;;4.70;99.90;;;;;;5052078;28;20033;-65
2022/12/05 08:29:31;;;;;;;35.90;17.55;;;4.70;99.90;;;;;;5051562;28;20029;-68
2022/12/05 08:31:57;;;;;;;34.28;17.63;;;4.70;99.90;;;;;;5051076;28;20021;-65
2022/12/05 08:34:23;;;;;;;37.28;18.48;;;4.80;99.90;;;;;;5052219;28;20374;-67
2022/12/05 08:36:49;;;;;;;36.75;18.38;;;4.80;99.90;;;;;;5051976;28;20051;-66
2022/12/05 08:39:16;;;;;;;45.08;19.20;;;4.80;99.90;;;;;;5051679;28;20112;-65
2022/12/05 08:41:46;;;;;;;38.97;18.75;;;4.80;99.90;;;;;;5051515;28;20055;-66
2022/12/05 08:44:15;;;;;;;39.67;19.30;;;4.80;99.90;;;;;;5051027;28;20056;-66
2022/12/05 08:46:43;;;;;;;46.03;20.73;;;4.80;99.90;;;;;;5051351;28;20096;-66
2022/12/05 08:49:10;;;;;;;38.05;20.42;;;4.80;99.90;;;;;;5051794;28;20470;-65
2022/12/05 08:51:36;;;;;;;40.63;19.52;;;4.70;99.90;;;;;;5051974;28;20029;-66
2022/12/05 08:54:03;;;;;;;48.28;21.13;;;4.80;99.90;;;;;;5052061;28;20025;-65
2022/12/05 08:56:28;;;;;;;43.03;19.23;;;4.80;99.90;;;;;;5052223;28;20553;-66
2022/12/05 08:58:55;;;;;;;43.00;18.80;;;4.70;99.90;;;;;;5051422;28;20104;-66
2022/12/05 09:01:21;;;;;;;37.63;18.90;;;4.80;99.90;;;;;;5051596;28;20381;-66
2022/12/05 09:03:48;;;;;;;38.22;18.17;;;4.80;99.90;;;;;;5051557;28;20353;-66
2022/12/05 09:06:16;;;;;;;42.55;19.33;;;4.80;99.90;;;;;;5051576;28;20556;-66
2022/12/05 09:08:42;;;;;;;44.00;19.50;;;4.80;99.90;;;;;;5051705;28;20029;-67
2022/12/05 09:11:11;;;;;;;43.13;18.58;;;4.80;99.90;;;;;;5051839;28;20029;-66
2022/12/05 09:13:37;;;;;;;36.55;18.58;;;4.90;99.90;;;;;;5051010;28;20370;-66
2022/12/05 09:16:06;;;;;;;42.58;18.95;;;4.90;99.90;;;;;;5051644;28;20437;-66
2022/12/05 09:18:32;;;;;;;40.08;18.15;;;4.90;99.90;;;;;;5051645;28;20435;-66
2022/12/05 09:20:57;;;;;;;32.80;17.75;;;4.90;99.90;;;;;;5051900;28;20096;-67
2022/12/05 09:23:23;;;;;;;32.60;17.63;;;4.90;99.90;;;;;;5051855;28;20397;-67
2022/12/05 09:25:56;;;;;;;35.38;17.48;;;4.90;99.90;;;;;;5050825;28;20024;-67
2022/12/05 09:28:22;;;;;;;41.95;17.85;;;5.00;99.90;;;;;;5052101;28;20036;-67
2022/12/05 09:31:02;;;;;;;34.58;16.60;;;4.90;99.90;;;;;;5054855;28;20032;-67
2022/12/05 09:33:29;;;;;;;33.95;17.08;;;4.90;99.90;;;;;;5054909;28;20028;-66
2022/12/05 09:35:55;;;;;;;34.22;17.73;;;5.00;99.90;;;;;;5054364;28;20622;-66
2022/12/05 09:38:21;;;;;;;35.35;17.13;;;5.00;99.90;;;;;;5055139;28;20025;-66
2022/12/05 09:40:58;;;;;;;33.65;17.63;;;5.00;99.90;;;;;;5054491;28;20063;-66
2022/12/05 09:43:46;;;;;;;35.05;17.45;;;5.00;99.90;;;;;;5055306;28;20029;-66
2022/12/05 09:46:33;;;;;;;35.38;17.60;;;5.10;99.90;;;;;;5055078;28;20033;-66
2022/12/05 09:49:01;;;;;;;34.80;17.70;;;5.00;99.90;;;;;;5054342;28;20021;-67
2022/12/05 09:51:26;;;;;;;36.00;16.90;;;5.00;99.90;;;;;;5054934;28;20021;-67
2022/12/05 09:53:53;;;;;;;38.33;17.60;;;5.00;99.90;;;;;;5054388;28;20025;-67
2022/12/05 09:56:28;;;;;;;30.67;16.35;;;5.10;99.90;;;;;;5054810;28;20426;-66
2022/12/05 09:58:55;;;;;;;31.70;17.05;;;5.10;99.90;;;;;;5057493;28;20109;-66
2022/12/05 10:01:35;;;;;;;32.00;16.70;;;5.10;99.90;;;;;;5056360;28;20457;-65
2022/12/05 10:04:23;;;;;;;35.47;17.90;;;5.10;99.90;;;;;;5055105;28;20539;-66
2022/12/05 10:06:58;;;;;;;34.95;16.90;;;5.10;99.90;;;;;;5054669;28;20458;-66
2022/12/05 10:09:52;;;;;;;38.65;17.80;;;5.10;99.90;;;;;;5054764;28;20035;-66
2022/12/05 10:12:23;;;;;;;30.45;15.85;;;5.10;99.90;;;;;;5054767;28;20037;-66
2022/12/05 10:15:04;;;;;;;34.60;16.80;;;5.10;99.90;;;;;;5053770;28;20037;-65
2022/12/05 10:17:39;;;;;;;35.03;17.63;;;5.10;99.90;;;;;;5054433;28;20029;-66
2022/12/05 10:20:18;;;;;;;34.72;16.45;;;5.10;99.90;;;;;;5054112;28;20108;-65
2022/12/05 10:22:52;;;;;;;34.40;17.65;;;5.10;99.90;;;;;;5054155;28;20029;-66
2022/12/05 10:25:20;;;;;;;38.85;18.20;;;5.10;99.90;;;;;;5053306;28;20039;-66
2022/12/05 10:27:56;;;;;;;32.92;16.42;;;5.20;99.90;;;;;;5053966;28;20025;-65
2022/12/05 10:30:24;;;;;;;43.38;19.30;;;5.10;99.90;;;;;;5054244;28;20029;-66
2022/12/05 10:33:12;;;;;;;36.13;17.70;;;5.10;99.90;;;;;;5053737;28;20025;-66
2022/12/05 10:35:39;;;;;;;35.67;18.92;;;5.10;99.90;;;;;;5054150;28;20059;-65
2022/12/05 10:38:26;;;;;;;33.55;16.80;;;5.10;99.90;;;;;;5054158;28;20029;-66
2022/12/05 10:40:57;;;;;;;33.88;17.67;;;5.10;99.90;;;;;;5051143;28;20025;-65
2022/12/05 10:43:28;;;;;;;34.75;16.92;;;5.10;99.90;;;;;;5053974;28;20107;-65
2022/12/05 10:45:54;;;;;;;37.83;17.50;;;5.10;99.90;;;;;;5053133;28;20390;-66
2022/12/05 10:48:21;;;;;;;35.95;17.40;;;5.10;99.90;;;;;;5053923;28;20040;-66
2022/12/05 10:50:52;;;;;;;34.85;17.30;;;5.10;99.90;;;;;;5053686;28;20420;-66
2022/12/05 10:53:23;;;;;;;32.47;16.42;;;5.10;99.90;;;;;;5053709;28;20406;-65
2022/12/05 10:55:50;;;;;;;36.17;18.17;;;5.10;99.90;;;;;;5053291;28;20483;-65
2022/12/05 10:58:26;;;;;;;42.25;19.15;;;5.20;99.90;;;;;;5053365;28;20017;-66
2022/12/05 11:01:11;;;;;;;31.55;16.95;;;5.20;99.90;;;;;;5053340;28;20428;-66
2022/12/05 11:03:39;;;;;;;34.00;16.83;;;5.20;99.90;;;;;;5053323;28;20037;-66
2022/12/05 11:06:25;;;;;;;39.10;18.52;;;5.20;99.90;;;;;;5053297;28;20029;-66
2022/12/05 11:09:12;;;;;;;39.30;18.98;;;5.20;99.90;;;;;;5052917;28;20116;-66
2022/12/05 11:11:38;;;;;;;36.08;18.63;;;5.20;99.90;;;;;;5052979;28;20037;-65
2022/12/05 11:14:05;;;;;;;36.53;16.90;;;5.20;99.90;;;;;;5053288;28;20028;-66
2022/12/05 11:16:35;;;;;;;37.92;17.50;;;5.30;99.90;;;;;;5053417;28;20094;-66
2022/12/05 11:19:25;;;;;;;41.80;18.95;;;5.30;99.90;;;;;;5053240;28;20029;-66
2022/12/05 11:21:51;;;;;;;38.33;19.15;;;5.30;99.90;;;;;;5046496;28;20378;-66
2022/12/05 11:24:29;;;;;;;40.63;17.92;;;5.30;99.90;;;;;;5052822;28;20029;-66
2022/12/05 11:26:57;;;;;;;38.03;17.77;;;5.30;99.90;;;;;;5052765;28;20033;-66
2022/12/05 11:29:37;;;;;;;39.72;18.55;;;5.30;99.90;;;;;;5053089;28;20103;-66
2022/12/05 11:32:05;;;;;;;35.45;17.58;;;5.30;99.90;;;;;;5052581;28;20029;-66
2022/12/05 11:34:38;;;;;;;40.95;17.33;;;5.30;99.90;;;;;;5052848;28;20029;-66
2022/12/05 11:37:14;;;;;;;34.85;16.95;;;5.30;99.90;;;;;;5051497;28;20045;-66
2022/12/05 11:39:40;;;;;;;37.83;18.23;;;5.30;99.90;;;;;;5032741;28;20034;-66
2022/12/05 11:42:12;;;;;;;42.40;18.15;;;5.30;99.90;;;;;;5032594;28;20029;-66
2022/12/05 11:45:09;;;;;;;41.60;18.50;;;5.30;99.90;;;;;;5031613;28;20489;-66
2022/12/05 11:47:59;;;;;;;42.38;18.60;;;5.30;99.90;;;;;;5032797;28;20120;-65
2022/12/05 11:50:44;;;;;;;35.00;17.70;;;5.30;99.90;;;;;;5032712;28;20386;-66
2022/12/05 11:53:38;;;;;;;35.95;17.58;;;5.30;99.90;;;;;;5032536;28;20025;-66
2022/12/05 11:56:37;;;;;;;38.72;18.02;;;5.30;99.90;;;;;;5032452;28;20103;-65
2022/12/05 11:59:27;;;;;;;42.15;17.77;;;5.30;99.90;;;;;;5019881;28;20095;-68
2022/12/05 12:02:19;;;;;;;35.00;17.85;;;5.30;99.90;;;;;;5032188;28;20386;-65
2022/12/05 12:05:03;;;;;;;;;;;5.30;99.90;;;;;;5032595;28;20025;-68
2022/12/05 12:07:52;;;;;;;41.92;19.05;;;5.30;99.90;;;;;;5031377;28;20273;-66
2022/12/05 12:10:31;;;;;;;40.50;17.58;;;5.30;99.90;;;;;;5032650;28;20131;-65
2022/12/05 12:13:44;;;;;;;41.45;19.52;;;5.30;99.90;;;;;;5032566;28;20040;-66
2022/12/05 12:16:28;;;;;;;38.53;18.80;;;5.30;99.90;;;;;;4990256;28;20053;-66
2022/12/05 12:19:11;;;;;;;49.53;20.92;;;5.30;99.90;;;;;;5032417;28;20025;-65
2022/12/05 12:21:49;;;;;;;57.05;22.55;;;5.30;99.90;;;;;;5032599;28;20029;-66
2022/12/05 12:24:47;;;;;;;48.67;21.63;;;5.30;99.90;;;;;;5032311;28;20025;-66
2022/12/05 12:27:18;;;;;;;57.03;24.65;;;5.30;99.90;;;;;;5009098;28;20052;-66
2022/12/05 12:30:10;;;;;;;62.75;22.60;;;5.30;99.90;;;;;;5032118;28;20025;-66
2022/12/05 12:33:03;;;;;;;52.90;23.85;;;5.30;99.90;;;;;;5032413;28;20029;-65
2022/12/05 12:35:29;;;;;;;58.08;23.95;;;5.20;99.90;;;;;;5030933;28;20474;-66
2022/12/05 12:38:19;;;;;;;57.67;24.67;;;5.20;99.90;;;;;;5031807;28;20033;-67
2022/12/05 12:40:48;;;;;;;57.97;24.60;;;5.20;99.90;;;;;;5032272;28;20032;-65
2022/12/05 12:43:40;;;;;;;61.47;24.02;;;5.10;99.90;;;;;;5031963;28;20108;-67
2022/12/05 12:46:24;;;;;;;52.13;24.65;;;5.10;99.90;;;;;;5031828;28;20029;-66
2022/12/05 12:49:15;;;;;;;63.20;25.73;;;5.10;99.90;;;;;;5031701;28;20030;-70
2022/12/05 12:51:50;;;;;;;;;;;5.10;99.90;;;;;;5026437;28;20553;-65
2022/12/05 12:54:39;;;;;;;56.75;24.25;;;5.10;99.90;;;;;;5032297;28;19905;-66
2022/12/05 12:57:40;;;;;;;63.20;25.23;;;5.10;99.90;;;;;;5031919;28;20080;-66
2022/12/05 13:00:34;;;;;;;71.78;26.00;;;5.10;99.90;;;;;;5031214;28;20036;-66
2022/12/05 13:03:09;;;;;;;61.85;26.15;;;5.10;99.90;;;;;;5031599;28;20117;-65
2022/12/05 13:05:48;;;;;;;66.82;27.08;;;5.10;99.90;;;;;;5036148;28;20029;-67